NCAR-RAP Real-Time Weather Data

Output produced by METARs form (10 April 2020  07:26 UTC)
found at http://weather.rap.ucar.edu/surface/
 
KCYS 100653Z AUTO 19006KT 10SM CLR 02/M06 A3005 RMK AO2 SLP160 T00221056 401221033 $
KCYS 100553Z AUTO 19010KT 10SM CLR 03/M05 A3006 RMK AO2 SLP163 T00331050 10111 20033 58006 $
KCYS 100453Z AUTO 17009KT 10SM CLR 04/M05 A3008 RMK AO2 SLP171 T00441050 $
KCYS 100353Z AUTO 16008KT 10SM CLR 05/M04 A3009 RMK AO2 SLP178 T00501044 $
KCYS 100253Z 17009KT 10SM CLR 06/M05 A3008 RMK AO2 SLP177 T00611050 53003 $
KCYS 100153Z 16010KT 10SM CLR 08/M06 A3007 RMK AO2 SLP171 T00831056 $
KCYS 100053Z 17012KT 10SM CLR 09/M06 A3007 RMK AO2 SLP176 T00941056 $
KCYS 092353Z 11011G16KT 10SM CLR 11/M06 A3007 RMK AO2 SLP177 T01061056 10122 20072 56012 $
KCYS 092253Z 09006KT 10SM CLR 11/M06 A3008 RMK AO2 SLP175 T01111056 $
KCYS 092153Z 09005KT 10SM CLR 12/M05 A3010 RMK AO2 SLP179 T01221050 $
KCYS 092053Z 00000KT 10SM CLR 10/M06 A3011 RMK AO2 SLP192 T01001056 58021
KCYS 091953Z VRB04KT 10SM CLR 09/M05 A3014 RMK AO2 SLP201 T00891050 $
KCYS 091853Z 00000KT 10SM CLR 09/M06 A3016 RMK AO2 SLP202 T00891056
KCYS 091823Z VRB03KT 10SM CLR 08/M06 A3018 RMK AO2 T00781056
KCYS 091753Z 10SM CLR 07/M06 A3019 RMK AO2 SLP213 T00721061 10078 21033 50001
KCYS 091653Z 04008G15KT 010V070 10SM CLR 06/M06 A3020 RMK AO2 SLP215 T00561061
KCYS 091553Z 03011G19KT 10SM CLR 04/M06 A3019 RMK AO2 SLP216 T00391061
KCYS 091453Z 03007KT 10SM CLR 03/M06 A3018 RMK AO2 SLP213 T00281061 51016
KCYS 091353Z 01007KT 10SM CLR 00/M06 A3018 RMK AO2 SLP211 T00001061
KCYS 091253Z 34003KT 10SM CLR M02/M07 A3015 RMK AO2 SLP202 T10221067
KCYS 091153Z 00000KT 10SM CLR M03/M07 A3013 RMK AO2 SLP190 T10281072 10017 21033 55006
KCYS 091053Z AUTO 27003KT 10SM CLR M03/M07 A3011 RMK AO2 SLP181 T10281072
KCYS 090953Z AUTO 26006KT 10SM CLR M03/M06 A3013 RMK AO2 SLP185 T10281061